createdAt,value
2022-12-19T00:02:57.770Z,102665.81
2022-12-19T00:06:04.546Z,102668.66
2022-12-19T00:09:07.064Z,102661.09
2022-12-19T00:12:10.655Z,102650.41
2022-12-19T00:15:15.630Z,102659.31
2022-12-19T00:18:17.904Z,102653.03
2022-12-19T00:21:21.897Z,102659.09
2022-12-19T00:24:24.237Z,102651.63
2022-12-19T00:27:26.600Z,102642.63
2022-12-19T00:30:28.880Z,102647.59
2022-12-19T00:33:31.973Z,102644.16
2022-12-19T00:36:35.859Z,102649.44
2022-12-19T00:39:38.145Z,102640.94
2022-12-19T00:42:41.524Z,102640.94
2022-12-19T00:45:44.324Z,102644.03
2022-12-19T00:48:46.724Z,102623.53
2022-12-19T00:51:49.463Z,102629.97
2022-12-19T00:54:51.736Z,102619.50
2022-12-19T00:57:55.141Z,102624.59
2022-12-19T01:01:09.808Z,102614.06
2022-12-19T01:04:28.069Z,102610.78
2022-12-19T01:07:31.180Z,102603.88
2022-12-19T01:10:36.386Z,102597.25
2022-12-19T01:13:40.481Z,102580.69
2022-12-19T01:16:44.590Z,102579.94
2022-12-19T01:19:47.078Z,102559.41
2022-12-19T01:22:49.414Z,102557.94
2022-12-19T01:25:54.488Z,102563.88
2022-12-19T01:28:58.003Z,102556.22
2022-12-19T01:32:00.344Z,102551.03
2022-12-19T01:35:03.387Z,102543.47
2022-12-19T01:38:08.533Z,102537.50
2022-12-19T01:41:11.457Z,102532.88
2022-12-19T01:44:13.780Z,102531.28
2022-12-19T01:47:16.283Z,102532.44
2022-12-19T01:50:22.341Z,102540.72
2022-12-19T01:53:29.347Z,102534.34
2022-12-19T01:56:34.485Z,102536.81
2022-12-19T01:59:58.155Z,102522.91
2022-12-19T02:03:24.385Z,102513.53
2022-12-19T02:06:27.823Z,102510.16
2022-12-19T02:09:30.303Z,102513.38
2022-12-19T02:12:35.927Z,102525.31
2022-12-19T02:16:01.163Z,102514.78
2022-12-19T02:19:37.232Z,102514.06
2022-12-19T02:22:57.637Z,102513.47
2022-12-19T02:26:08.908Z,102511.09
2022-12-19T02:29:41.248Z,102515.00
2022-12-19T02:33:00.136Z,102511.34
2022-12-19T02:36:30.180Z,102511.53
2022-12-19T02:39:55.819Z,102506.72
2022-12-19T02:43:00.500Z,102504.53
2022-12-19T02:46:04.749Z,102496.03
2022-12-19T02:49:09.741Z,102495.81
2022-12-19T02:52:33.219Z,102500.06
2022-12-19T02:56:09.364Z,102489.19
2022-12-19T02:59:42.747Z,102493.25
2022-12-19T03:03:12.385Z,102473.84
2022-12-19T03:06:26.224Z,102479.69
2022-12-19T03:09:48.694Z,102472.03
2022-12-19T03:13:10.636Z,102474.41
2022-12-19T03:16:14.649Z,102478.31
2022-12-19T03:19:17.325Z,102476.59
2022-12-19T03:22:19.764Z,102481.31
2022-12-19T03:25:23.327Z,102476.97
2022-12-19T03:28:39.221Z,102460.34
2022-12-19T03:31:42.741Z,102471.00
2022-12-19T03:34:50.649Z,102472.81
2022-12-19T03:37:55.188Z,102461.59
2022-12-19T03:40:58.277Z,102467.53
2022-12-19T03:44:00.708Z,102459.19
2022-12-19T03:47:27.381Z,102446.28
2022-12-19T03:50:33.952Z,102440.41
2022-12-19T03:53:42.321Z,102439.88
2022-12-19T03:57:13.279Z,102438.19
2022-12-19T04:00:16.972Z,102433.00
2022-12-19T04:03:20.351Z,102423.59
2022-12-19T04:06:22.641Z,102431.34
2022-12-19T04:09:25.231Z,102431.25
2022-12-19T04:12:31.385Z,102422.22
2022-12-19T04:16:00.065Z,102417.31
2022-12-19T04:19:16.534Z,102420.78
2022-12-19T04:22:24.484Z,102404.50
2022-12-19T04:25:30.661Z,102401.28
2022-12-19T04:28:39.734Z,102404.91
2022-12-19T04:31:42.231Z,102400.28
2022-12-19T04:34:44.654Z,102401.66
2022-12-19T04:37:47.111Z,102394.59
2022-12-19T04:40:49.519Z,102388.75
2022-12-19T04:43:52.494Z,102380.81
2022-12-19T04:46:54.882Z,102391.66
2022-12-19T04:49:57.289Z,102379.97
2022-12-19T04:52:59.509Z,102390.19
2022-12-19T04:56:03.204Z,102366.53
2022-12-19T04:59:05.522Z,102369.19
2022-12-19T05:02:08.120Z,102373.75
2022-12-19T05:05:10.627Z,102365.16
2022-12-19T05:08:13.008Z,102377.69
2022-12-19T05:11:19.715Z,102346.31
2022-12-19T05:14:22.515Z,102358.19
2022-12-19T05:17:24.812Z,102360.75
2022-12-19T05:20:27.065Z,102361.72
2022-12-19T05:23:29.663Z,102353.13
2022-12-19T05:26:32.014Z,102362.03
2022-12-19T05:29:34.891Z,102361.72
2022-12-19T05:32:37.251Z,102363.88
2022-12-19T05:35:40.079Z,102356.91
2022-12-19T05:38:42.683Z,102349.53
2022-12-19T05:41:48.848Z,102343.78
2022-12-19T05:44:51.506Z,102329.94
2022-12-19T05:47:56.608Z,102334.91
2022-12-19T05:51:02.313Z,102336.59
2022-12-19T05:54:04.851Z,102334.59
2022-12-19T05:57:07.244Z,102335.06
2022-12-19T06:00:10.348Z,102334.97
2022-12-19T06:03:15.441Z,102347.88
2022-12-19T06:06:20.242Z,102343.56
2022-12-19T06:09:22.556Z,102328.34
2022-12-19T06:12:26.500Z,102334.97
2022-12-19T06:15:28.836Z,102329.88
2022-12-19T06:18:32.005Z,102319.09
2022-12-19T06:21:34.406Z,102331.91
2022-12-19T06:24:36.793Z,102315.41
2022-12-19T06:27:39.079Z,102323.50
2022-12-19T06:30:41.427Z,102322.47
2022-12-19T06:33:43.757Z,102321.81
2022-12-19T06:36:46.226Z,102309.97
2022-12-19T06:39:48.491Z,102311.84
2022-12-19T06:42:50.831Z,102308.09
2022-12-19T06:45:53.166Z,102302.16
2022-12-19T06:48:55.503Z,102301.81
2022-12-19T06:51:57.859Z,102303.63
2022-12-19T06:55:00.265Z,102293.94
2022-12-19T06:58:02.588Z,102292.25
2022-12-19T07:01:05.419Z,102279.56
2022-12-19T07:04:08.577Z,102283.72
2022-12-19T07:07:10.885Z,102287.44
2022-12-19T07:10:13.303Z,102305.41
2022-12-19T07:13:15.924Z,102307.25
2022-12-19T07:16:18.385Z,102291.06
2022-12-19T07:19:21.432Z,102295.94
2022-12-19T07:22:24.627Z,102290.16
2022-12-19T07:25:26.955Z,102291.78
2022-12-19T07:28:29.435Z,102285.91
2022-12-19T07:31:31.774Z,102292.81
2022-12-19T07:34:34.658Z,102285.31
2022-12-19T07:37:36.933Z,102273.53
2022-12-19T07:40:39.232Z,102274.72
2022-12-19T07:43:41.526Z,102249.06
2022-12-19T07:46:44.834Z,102270.44
2022-12-19T07:49:47.192Z,102266.16
2022-12-19T07:52:49.540Z,102254.22
2022-12-19T07:55:52.681Z,102240.78
2022-12-19T07:58:55.046Z,102245.97
2022-12-19T08:01:57.617Z,102235.16
2022-12-19T08:05:03.798Z,102238.03
2022-12-19T08:08:06.199Z,102230.81
2022-12-19T08:11:13.694Z,102225.94
2022-12-19T08:14:16.114Z,102209.81
2022-12-19T08:17:20.939Z,102215.88
2022-12-19T08:20:23.783Z,102211.94
2022-12-19T08:23:26.211Z,102204.69
2022-12-19T08:26:32.531Z,102217.53
2022-12-19T08:29:39.994Z,102204.78
2022-12-19T08:32:42.435Z,102218.06
2022-12-19T08:35:44.804Z,102203.22
2022-12-19T08:38:47.854Z,102194.09
2022-12-19T08:41:50.210Z,102192.22
2022-12-19T08:44:52.562Z,102178.41
2022-12-19T08:47:55.453Z,102179.69
2022-12-19T08:50:59.751Z,102175.03
2022-12-19T08:54:02.087Z,102169.72
2022-12-19T08:57:10.137Z,102159.94
2022-12-19T09:00:13.028Z,102160.69
2022-12-19T09:03:16.285Z,102170.50
2022-12-19T09:06:21.095Z,102164.41
2022-12-19T09:09:23.503Z,102153.69
2022-12-19T09:12:26.082Z,102127.44
2022-12-19T09:15:28.379Z,102132.75
2022-12-19T09:18:31.867Z,102128.41
2022-12-19T09:21:34.216Z,102126.78
2022-12-19T09:24:36.525Z,102116.28
2022-12-19T09:28:09.375Z,102100.59
2022-12-19T09:31:06.550Z,102101.56
2022-12-19T09:34:09.009Z,102105.16
2022-12-19T09:37:16.739Z,102080.19
2022-12-19T09:40:19.905Z,102067.25
2022-12-19T09:43:48.404Z,102067.00
2022-12-19T09:46:56.992Z,102062.56
2022-12-19T09:50:00.663Z,102047.91
2022-12-19T09:53:07.091Z,102043.56
2022-12-19T09:56:16.240Z,102037.41
2022-12-19T09:59:39.699Z,102028.00
2022-12-19T10:03:08.619Z,102015.59
2022-12-19T10:07:10.430Z,102015.78
2022-12-19T10:11:46.885Z,102011.19
2022-12-19T10:13:28.879Z,101998.59
2022-12-19T10:17:01.715Z,101997.69
2022-12-19T10:20:19.341Z,102012.34
2022-12-19T10:23:40.184Z,102007.09
2022-12-19T10:26:59.949Z,101987.22
2022-12-19T10:30:18.319Z,101986.63
2022-12-19T10:33:31.092Z,101971.81
2022-12-19T10:40:28.454Z,101969.97
2022-12-19T10:43:52.801Z,101969.00
2022-12-19T10:46:55.062Z,101952.19
2022-12-19T10:49:57.561Z,101950.91
2022-12-19T10:53:07.476Z,101936.91
2022-12-19T10:56:19.591Z,101931.31
2022-12-19T10:59:22.629Z,101924.47
2022-12-19T11:02:35.481Z,101926.41
2022-12-19T11:05:57.521Z,101913.00
2022-12-19T11:09:39.806Z,101921.84
2022-12-19T11:16:38.305Z,101917.09
2022-12-19T11:19:38.234Z,101908.78
2022-12-19T11:29:40.714Z,101877.63
2022-12-19T11:29:45.165Z,101890.44
2022-12-19T11:30:39.546Z,101886.44
2022-12-19T11:33:39.405Z,101885.16
2022-12-19T11:36:56.801Z,101868.66
2022-12-19T11:40:04.358Z,101866.31
2022-12-19T11:46:40.166Z,101864.38
2022-12-19T11:49:51.778Z,101870.00
2022-12-19T11:53:05.661Z,101865.34
2022-12-19T11:56:16.527Z,101862.41
2022-12-19T11:59:21.356Z,101848.34
2022-12-19T12:02:47.944Z,101826.78
2022-12-19T12:05:50.779Z,101796.44
2022-12-19T12:12:50.077Z,101794.06
2022-12-19T12:20:40.905Z,101791.19
2022-12-19T12:26:02.064Z,101791.63
2022-12-19T12:31:13.554Z,101794.88
2022-12-19T12:31:14.692Z,101784.31
2022-12-19T12:31:46.927Z,101787.97
2022-12-19T12:31:47.165Z,101779.47
2022-12-19T12:35:34.256Z,101773.50
2022-12-19T12:38:14.356Z,101764.94
2022-12-19T12:40:56.290Z,101766.16
2022-12-19T12:44:12.158Z,101770.91
2022-12-19T12:47:25.750Z,101765.00
2022-12-19T12:50:28.943Z,101756.69
2022-12-19T12:53:37.666Z,101737.53
2022-12-19T12:56:40.787Z,101726.97
2022-12-19T12:59:46.220Z,101737.13
2022-12-19T13:03:14.738Z,101721.69
2022-12-19T13:06:37.393Z,101712.59
2022-12-19T13:09:40.620Z,101696.88
2022-12-19T13:13:14.641Z,101704.94
2022-12-19T13:16:43.779Z,101696.44
2022-12-19T13:20:06.376Z,101688.44
2022-12-19T13:23:37.501Z,101682.47
2022-12-19T13:26:50.074Z,101683.91
2022-12-19T13:30:03.904Z,101677.31
2022-12-19T13:33:08.446Z,101671.84
2022-12-19T13:39:48.494Z,101666.09
2022-12-19T13:40:32.962Z,101650.25
2022-12-19T13:43:46.435Z,101644.75
2022-12-19T13:46:48.917Z,101649.75
2022-12-19T13:49:51.324Z,101659.75
2022-12-19T13:52:54.097Z,101645.38
2022-12-19T13:56:00.833Z,101639.34
2022-12-19T13:59:04.836Z,101632.97
2022-12-19T14:02:24.505Z,101631.34
2022-12-19T14:06:15.940Z,101624.91
2022-12-19T14:10:02.861Z,101620.38
2022-12-19T14:14:00.714Z,101633.84
2022-12-19T14:16:18.627Z,101637.06
2022-12-19T14:19:26.430Z,101612.91
2022-12-19T14:22:28.795Z,101615.75
2022-12-19T14:28:19.827Z,101596.94
2022-12-19T14:29:18.400Z,101601.69
2022-12-19T14:33:39.372Z,101594.81
2022-12-19T14:36:09.672Z,101593.53
2022-12-19T14:39:28.873Z,101575.00
2022-12-19T14:43:56.378Z,101586.31
2022-12-19T14:54:01.909Z,101606.91
2022-12-19T14:54:08.630Z,101610.31
2022-12-19T14:54:43.935Z,101576.91
2022-12-19T14:56:59.905Z,101578.81
2022-12-19T15:00:50.907Z,101585.22
2022-12-19T15:04:51.447Z,101568.13
2022-12-19T15:07:27.370Z,101571.47
2022-12-19T15:11:02.896Z,101541.91
2022-12-19T15:14:52.565Z,101559.41
2022-12-19T15:17:25.047Z,101548.69
2022-12-19T15:20:27.455Z,101539.78
2022-12-19T15:23:30.131Z,101539.63
2022-12-19T15:26:37.304Z,101527.97
2022-12-19T15:29:39.611Z,101534.69
2022-12-19T15:32:41.852Z,101518.84
2022-12-19T15:35:45.224Z,101518.47
2022-12-19T15:38:47.560Z,101513.13
2022-12-19T15:41:52.227Z,101499.81
2022-12-19T15:44:56.907Z,101482.50
2022-12-19T15:47:59.338Z,101490.03
2022-12-19T15:51:01.749Z,101499.50
2022-12-19T15:57:32.514Z,101485.34
2022-12-19T16:00:36.270Z,101481.09
2022-12-19T16:03:38.623Z,101485.16
2022-12-19T16:06:41.168Z,101474.28
2022-12-19T16:09:43.442Z,101457.97
2022-12-19T16:12:48.360Z,101447.25
2022-12-19T16:15:51.011Z,101447.56
2022-12-19T16:18:53.391Z,101454.88
2022-12-19T16:21:56.277Z,101441.75
2022-12-19T16:24:58.638Z,101429.53
2022-12-19T16:28:01.851Z,101439.25
2022-12-19T16:31:16.361Z,101456.44
2022-12-19T16:34:21.606Z,101468.69
2022-12-19T16:37:30.157Z,101473.53
2022-12-19T16:40:34.443Z,101463.19
2022-12-19T16:43:39.650Z,101452.25
2022-12-19T16:46:48.693Z,101433.00
2022-12-19T16:49:52.839Z,101433.06
2022-12-19T16:52:56.330Z,101401.53
2022-12-19T16:55:58.818Z,101413.72
2022-12-19T16:59:03.431Z,101390.78
2022-12-19T17:02:38.076Z,101405.31
2022-12-19T17:05:40.650Z,101406.72
2022-12-19T17:08:43.114Z,101398.84
2022-12-19T17:11:48.021Z,101399.34
2022-12-19T17:14:50.339Z,101401.13
2022-12-19T17:17:53.920Z,101399.66
2022-12-19T17:20:56.380Z,101386.59
2022-12-19T17:23:58.628Z,101389.56
2022-12-19T17:27:00.921Z,101394.47
2022-12-19T17:30:03.323Z,101389.31
2022-12-19T17:33:06.257Z,101387.63
2022-12-19T17:36:12.445Z,101386.09
2022-12-19T17:39:22.860Z,101379.91
2022-12-19T17:42:28.736Z,101362.03
2022-12-19T17:45:34.091Z,101361.34
2022-12-19T17:48:36.965Z,101363.06
2022-12-19T17:51:39.348Z,101344.81
2022-12-19T17:54:41.764Z,101342.53
2022-12-19T17:57:44.106Z,101332.88
2022-12-19T18:00:49.824Z,101324.00
2022-12-19T18:03:53.875Z,101333.56
2022-12-19T18:06:56.244Z,101325.69
2022-12-19T18:09:58.760Z,101313.06
2022-12-19T18:13:01.259Z,101313.84
2022-12-19T18:16:04.681Z,101305.56
2022-12-19T18:19:07.386Z,101314.72
2022-12-19T18:22:13.963Z,101333.13
2022-12-19T18:25:21.243Z,101300.88
2022-12-19T18:28:23.678Z,101301.84
2022-12-19T18:31:26.719Z,101305.63
2022-12-19T18:34:31.264Z,101290.75
2022-12-19T18:37:33.811Z,101269.56
2022-12-19T18:40:36.284Z,101248.53
2022-12-19T18:43:38.617Z,101260.22
2022-12-19T18:46:41.043Z,101256.28
2022-12-19T18:49:43.398Z,101258.97
2022-12-19T18:52:46.227Z,101260.97
2022-12-19T18:55:48.813Z,101256.91
2022-12-19T18:58:51.168Z,101255.13
2022-12-19T19:01:55.634Z,101258.63
2022-12-19T19:04:59.389Z,101250.16
2022-12-19T19:08:12.915Z,101244.00
2022-12-19T19:11:15.306Z,101246.13
2022-12-19T19:14:17.858Z,101240.50
2022-12-19T19:18:42.634Z,101252.56
2022-12-19T19:21:45.460Z,101233.34
2022-12-19T19:24:47.699Z,101238.81
2022-12-19T19:27:50.399Z,101244.06
2022-12-19T19:30:53.009Z,101235.19
2022-12-19T19:34:01.694Z,101229.31
2022-12-19T19:37:06.092Z,101205.44
2022-12-19T19:40:09.232Z,101172.38
2022-12-19T19:43:11.604Z,101200.03
2022-12-19T19:46:14.014Z,101197.38
2022-12-19T19:49:16.531Z,101200.25
2022-12-19T19:52:18.928Z,101175.34
2022-12-19T19:55:21.331Z,101169.13
2022-12-19T19:58:24.063Z,101165.13
2022-12-19T20:01:26.813Z,101156.59
2022-12-19T20:04:29.386Z,101157.94
2022-12-19T20:07:31.808Z,101149.25
2022-12-19T20:10:34.371Z,101121.56
2022-12-19T20:13:37.789Z,101121.66
2022-12-19T20:16:40.287Z,101137.06
2022-12-19T20:19:42.729Z,101124.78
2022-12-19T20:22:45.137Z,101140.84
2022-12-19T20:25:47.523Z,101118.66
2022-12-19T20:28:51.040Z,101111.28
2022-12-19T20:31:53.512Z,101115.22
2022-12-19T20:34:55.818Z,101110.94
2022-12-19T20:37:58.141Z,101098.19
2022-12-19T20:41:00.509Z,101110.06
2022-12-19T20:44:02.887Z,101103.53
2022-12-19T20:47:05.461Z,101090.53
2022-12-19T20:50:08.508Z,101082.09
2022-12-19T20:53:10.986Z,101093.63
2022-12-19T20:56:15.739Z,101093.22
2022-12-19T20:59:19.383Z,101100.56
2022-12-19T21:02:21.913Z,101089.66
2022-12-19T21:05:24.530Z,101085.13
2022-12-19T21:08:27.715Z,101078.25
2022-12-19T21:11:30.067Z,101067.41
2022-12-19T21:14:32.430Z,101073.44
2022-12-19T21:17:34.781Z,101068.22
2022-12-19T21:20:39.180Z,101064.47
2022-12-19T21:23:41.686Z,101045.63
2022-12-19T21:26:51.757Z,101073.09
2022-12-19T21:29:56.849Z,101057.88
2022-12-19T21:32:59.247Z,101046.13
2022-12-19T21:36:12.603Z,101047.00
2022-12-19T21:39:15.031Z,101051.06
2022-12-19T21:42:17.381Z,101036.47
2022-12-19T21:45:19.710Z,101030.44
2022-12-19T21:48:22.015Z,101007.81
2022-12-19T21:51:26.738Z,101036.81
2022-12-19T21:54:29.125Z,101016.50
2022-12-19T21:57:31.691Z,101023.13
2022-12-19T22:00:34.169Z,101019.44
2022-12-19T22:03:38.169Z,101017.22
2022-12-19T22:06:41.092Z,101021.00
2022-12-19T22:09:43.421Z,101010.88
2022-12-19T22:12:46.367Z,101008.16
2022-12-19T22:15:48.907Z,101010.31
2022-12-19T22:18:53.112Z,100992.44
2022-12-19T22:21:55.604Z,101005.41
2022-12-19T22:24:57.958Z,101001.41
2022-12-19T22:28:00.351Z,100978.38
2022-12-19T22:31:03.024Z,100990.31
2022-12-19T22:34:11.334Z,100978.09
2022-12-19T22:37:13.721Z,100952.28
2022-12-19T22:40:16.334Z,100977.19
2022-12-19T22:43:18.962Z,100971.38
2022-12-19T22:46:27.739Z,100966.66
2022-12-19T22:49:30.801Z,100959.34
2022-12-19T22:52:33.271Z,100961.56
2022-12-19T22:55:35.650Z,100962.03
2022-12-19T22:58:39.983Z,100960.56
2022-12-19T23:01:43.821Z,100953.72
2022-12-19T23:04:46.102Z,100954.13
2022-12-19T23:07:48.339Z,100950.00
2022-12-19T23:10:52.644Z,100952.72
2022-12-19T23:13:55.405Z,100937.22
2022-12-19T23:16:57.719Z,100934.22
2022-12-19T23:20:00.130Z,100947.88
2022-12-19T23:23:02.441Z,100946.09
2022-12-19T23:26:08.471Z,100927.34
2022-12-19T23:29:16.793Z,100926.13
2022-12-19T23:32:19.173Z,100928.34
2022-12-19T23:35:21.475Z,100913.50
2022-12-19T23:38:24.104Z,100924.66
2022-12-19T23:41:26.345Z,100919.13
2022-12-19T23:44:28.821Z,100919.84
2022-12-19T23:47:31.200Z,100917.34
2022-12-19T23:50:33.742Z,100912.19
2022-12-19T23:53:36.125Z,100906.13
2022-12-19T23:56:38.633Z,100904.84
2022-12-19T23:59:41.633Z,100884.16
